createdAt,value
2022-11-16T00:02:03.741Z,7.15
2022-11-16T00:04:42.887Z,7.19
2022-11-16T00:07:27.965Z,7.22
2022-11-16T00:10:18.401Z,7.23
2022-11-16T00:12:48.162Z,7.20
2022-11-16T00:15:24.901Z,7.24
2022-11-16T00:23:58.515Z,7.26
2022-11-16T00:26:25.226Z,7.25
2022-11-16T00:28:53.329Z,7.31
2022-11-16T00:31:19.793Z,7.31
2022-11-16T00:33:46.660Z,7.23
2022-11-16T00:36:13.620Z,7.28
2022-11-16T00:38:41.151Z,7.26
2022-11-16T00:41:08.776Z,7.22
2022-11-16T00:43:36.158Z,7.15
2022-11-16T00:46:03.486Z,7.18
2022-11-16T00:48:30.223Z,7.19
2022-11-16T00:50:56.693Z,7.25
2022-11-16T00:53:23.318Z,7.31
2022-11-16T00:55:50.005Z,7.25
2022-11-16T00:58:16.489Z,7.24
2022-11-16T01:00:44.048Z,7.33
2022-11-16T01:03:11.168Z,7.37
2022-11-16T01:05:37.875Z,7.38
2022-11-16T01:08:04.578Z,7.36
2022-11-16T01:10:31.487Z,7.39
2022-11-16T01:12:57.953Z,7.46
2022-11-16T01:15:26.442Z,7.46
2022-11-16T01:17:54.700Z,7.42
2022-11-16T01:20:23.882Z,7.46
2022-11-16T01:22:50.575Z,7.47
2022-11-16T01:25:17.374Z,7.44
2022-11-16T01:27:44.364Z,7.52
2022-11-16T01:30:13.328Z,7.47
2022-11-16T01:32:40.237Z,7.47
2022-11-16T01:35:08.255Z,7.50
2022-11-16T01:37:35.111Z,7.42
2022-11-16T01:40:01.777Z,7.41
2022-11-16T01:42:30.901Z,7.48
2022-11-16T01:45:08.017Z,7.48
2022-11-16T01:47:34.562Z,7.48
2022-11-16T01:50:10.203Z,7.50
2022-11-16T01:52:46.052Z,7.51
2022-11-16T01:55:13.317Z,7.48
2022-11-16T01:57:42.446Z,7.42
2022-11-16T02:00:12.319Z,7.43
2022-11-16T02:02:38.855Z,7.46
2022-11-16T02:05:06.546Z,7.48
2022-11-16T02:08:26.820Z,7.49
2022-11-16T02:11:03.099Z,7.47
2022-11-16T02:13:41.090Z,7.43
2022-11-16T02:16:39.791Z,7.53
2022-11-16T02:19:44.516Z,7.46
2022-11-16T02:22:33.918Z,7.42
2022-11-16T02:25:11.346Z,7.39
2022-11-16T02:27:43.871Z,7.20
2022-11-16T02:30:10.652Z,7.25
2022-11-16T02:33:00.123Z,7.17
2022-11-16T02:35:42.206Z,7.18
2022-11-16T02:38:18.749Z,7.12
2022-11-16T02:40:50.673Z,6.96
2022-11-16T02:43:26.525Z,6.93
2022-11-16T02:45:57.160Z,6.85
2022-11-16T02:48:30.100Z,6.83
2022-11-16T02:50:57.362Z,6.86
2022-11-16T02:53:25.633Z,6.87
2022-11-16T02:55:52.197Z,6.84
2022-11-16T02:58:23.619Z,6.76
2022-11-16T03:01:06.411Z,6.74
2022-11-16T03:04:13.351Z,6.69
2022-11-16T03:06:41.496Z,6.70
2022-11-16T03:09:18.128Z,6.65
2022-11-16T03:12:02.163Z,6.60
2022-11-16T03:14:50.320Z,6.56
2022-11-16T03:17:22.194Z,6.55
2022-11-16T03:19:58.110Z,6.44
2022-11-16T03:22:38.213Z,6.50
2022-11-16T03:25:06.515Z,6.47
2022-11-16T03:27:42.239Z,6.47
2022-11-16T03:30:23.309Z,6.41
2022-11-16T03:33:14.192Z,6.35
2022-11-16T03:35:52.981Z,6.38
2022-11-16T03:38:22.983Z,6.38
2022-11-16T03:40:50.996Z,6.35
2022-11-16T03:43:20.603Z,6.23
2022-11-16T03:45:47.458Z,6.20
2022-11-16T03:48:14.154Z,6.23
2022-11-16T03:50:41.034Z,6.25
2022-11-16T03:53:07.507Z,6.22
2022-11-16T03:55:34.108Z,6.24
2022-11-16T03:58:00.649Z,6.20
2022-11-16T04:00:27.309Z,6.15
2022-11-16T04:02:53.998Z,6.16
2022-11-16T04:05:39.391Z,6.16
2022-11-16T04:08:32.419Z,6.26
2022-11-16T04:11:18.017Z,6.27
2022-11-16T04:14:08.807Z,6.19
2022-11-16T04:16:54.265Z,6.23
2022-11-16T04:19:39.461Z,6.26
2022-11-16T04:22:32.127Z,6.29
2022-11-16T04:25:08.822Z,6.27
2022-11-16T04:27:54.535Z,6.18
2022-11-16T04:30:21.136Z,6.16
2022-11-16T04:33:07.340Z,6.17
2022-11-16T04:35:52.462Z,6.11
2022-11-16T04:38:19.095Z,6.14
2022-11-16T04:40:45.493Z,6.13
2022-11-16T04:43:12.733Z,6.12
2022-11-16T04:45:57.966Z,6.07
2022-11-16T04:48:24.421Z,6.08
2022-11-16T04:50:50.882Z,6.06
2022-11-16T04:53:17.339Z,6.05
2022-11-16T04:55:43.818Z,5.98
2022-11-16T04:58:10.537Z,5.95
2022-11-16T05:00:37.120Z,5.89
2022-11-16T05:03:05.032Z,5.87
2022-11-16T05:05:31.578Z,5.87
2022-11-16T05:07:58.314Z,5.83
2022-11-16T05:10:24.800Z,5.86
2022-11-16T05:12:51.287Z,5.89
2022-11-16T05:15:19.623Z,5.88
2022-11-16T05:17:46.753Z,5.93
2022-11-16T05:20:32.046Z,5.88
2022-11-16T05:22:59.089Z,5.79
2022-11-16T05:25:26.176Z,5.78
2022-11-16T05:27:52.687Z,5.82
2022-11-16T05:30:19.413Z,5.78
2022-11-16T05:32:45.952Z,5.77
2022-11-16T05:35:12.543Z,5.82
2022-11-16T05:37:39.029Z,5.75
2022-11-16T05:40:06.232Z,5.77
2022-11-16T05:42:32.689Z,5.76
2022-11-16T05:44:59.190Z,5.74
2022-11-16T05:47:25.830Z,5.76
2022-11-16T05:49:52.283Z,5.72
2022-11-16T05:52:18.731Z,5.70
2022-11-16T05:54:45.569Z,5.68
2022-11-16T05:57:12.022Z,5.78
2022-11-16T05:59:38.497Z,5.76
2022-11-16T06:04:57.796Z,5.81
2022-11-16T06:07:24.624Z,5.82
2022-11-16T06:09:51.473Z,5.86
2022-11-16T06:12:18.079Z,5.92
2022-11-16T06:14:44.729Z,5.83
2022-11-16T06:17:14.586Z,5.85
2022-11-16T06:19:41.792Z,5.89
2022-11-16T06:22:08.698Z,5.81
2022-11-16T06:24:35.384Z,5.82
2022-11-16T06:27:04.472Z,5.77
2022-11-16T06:29:42.884Z,5.81
2022-11-16T06:32:18.353Z,5.85
2022-11-16T06:34:45.031Z,5.81
2022-11-16T06:37:11.736Z,5.86
2022-11-16T06:39:38.481Z,5.89
2022-11-16T06:42:07.596Z,5.85
2022-11-16T06:44:34.483Z,5.86
2022-11-16T06:47:01.258Z,5.77
2022-11-16T06:49:29.118Z,5.81
2022-11-16T06:51:55.805Z,5.83
2022-11-16T06:54:29.787Z,5.85
2022-11-16T06:56:56.617Z,5.91
2022-11-16T06:59:23.529Z,5.96
2022-11-16T07:01:51.143Z,5.98
2022-11-16T07:04:17.949Z,6.00
2022-11-16T07:06:45.052Z,6.01
2022-11-16T07:09:14.699Z,6.06
2022-11-16T07:11:41.476Z,6.07
2022-11-16T07:14:08.293Z,6.12
2022-11-16T07:16:38.407Z,6.18
2022-11-16T07:19:05.200Z,6.18
2022-11-16T07:21:32.300Z,6.17
2022-11-16T07:24:01.040Z,6.20
2022-11-16T07:26:29.042Z,6.19
2022-11-16T07:28:55.820Z,6.19
2022-11-16T07:31:23.009Z,6.30
2022-11-16T07:35:11.868Z,6.27
2022-11-16T07:39:02.167Z,6.27
2022-11-16T07:42:49.556Z,6.24
2022-11-16T07:46:45.940Z,6.32
2022-11-16T07:49:25.331Z,6.37
2022-11-16T07:51:52.282Z,6.38
2022-11-16T07:54:19.284Z,6.34
2022-11-16T07:56:46.398Z,6.35
2022-11-16T07:59:13.473Z,6.37
2022-11-16T08:01:40.366Z,6.48
2022-11-16T08:04:07.353Z,6.44
2022-11-16T08:06:38.331Z,6.49
2022-11-16T08:09:07.841Z,6.50
2022-11-16T08:11:41.257Z,6.45
2022-11-16T08:14:32.226Z,6.43
2022-11-16T08:17:07.661Z,6.46
2022-11-16T08:19:34.980Z,6.47
2022-11-16T08:22:08.630Z,6.49
2022-11-16T08:24:36.073Z,6.58
2022-11-16T08:27:06.407Z,6.62
2022-11-16T08:29:35.905Z,6.61
2022-11-16T08:32:06.670Z,6.63
2022-11-16T08:34:41.449Z,6.59
2022-11-16T08:37:11.440Z,6.61
2022-11-16T08:39:41.643Z,6.63
2022-11-16T08:42:09.950Z,6.69
2022-11-16T08:44:57.730Z,6.66
2022-11-16T08:47:27.482Z,6.69
2022-11-16T08:49:56.705Z,6.77
2022-11-16T08:52:23.750Z,6.77
2022-11-16T08:54:53.445Z,6.80
2022-11-16T08:57:20.611Z,6.84
2022-11-16T08:59:52.550Z,6.86
2022-11-16T09:02:31.639Z,6.98
2022-11-16T09:05:06.917Z,7.05
2022-11-16T09:07:40.270Z,7.11
2022-11-16T09:10:16.599Z,7.13
2022-11-16T09:12:48.846Z,7.13
2022-11-16T09:15:20.869Z,7.18
2022-11-16T09:17:55.129Z,7.20
2022-11-16T09:20:26.621Z,7.28
2022-11-16T09:22:59.150Z,7.31
2022-11-16T09:25:29.304Z,7.27
2022-11-16T09:27:58.478Z,7.24
2022-11-16T09:30:37.333Z,7.20
2022-11-16T09:33:56.065Z,7.22
2022-11-16T09:36:32.014Z,7.28
2022-11-16T09:39:30.064Z,7.31
2022-11-16T09:46:52.598Z,7.34
2022-11-16T09:49:39.170Z,7.33
2022-11-16T09:52:17.468Z,7.25
2022-11-16T09:54:48.455Z,7.28
2022-11-16T09:57:24.822Z,7.25
2022-11-16T09:59:58.692Z,7.30
2022-11-16T10:18:12.429Z,7.43
2022-11-16T10:21:09.703Z,7.48
2022-11-16T10:24:06.303Z,7.57
2022-11-16T10:26:48.221Z,7.62
2022-11-16T10:29:24.306Z,7.68
2022-11-16T10:32:14.779Z,7.81
2022-11-16T10:38:33.130Z,8.02
2022-11-16T10:41:25.263Z,8.15
2022-11-16T10:43:51.850Z,8.21
2022-11-16T10:46:32.362Z,8.28
2022-11-16T10:49:08.464Z,8.34
2022-11-16T10:51:34.902Z,8.34
2022-11-16T10:54:01.371Z,8.36
2022-11-16T10:56:31.817Z,8.49
2022-11-16T10:59:04.067Z,8.58
2022-11-16T11:01:40.036Z,8.71
2022-11-16T11:04:16.324Z,8.81
2022-11-16T11:06:43.233Z,8.95
2022-11-16T11:09:36.902Z,9.15
2022-11-16T11:12:36.050Z,9.28
2022-11-16T11:15:11.584Z,9.29
2022-11-16T11:17:40.749Z,9.24
2022-11-16T11:20:21.838Z,9.22
2022-11-16T11:22:53.893Z,9.15
2022-11-16T11:25:32.404Z,9.06
2022-11-16T11:28:31.605Z,9.02
2022-11-16T11:31:11.584Z,9.05
2022-11-16T11:33:44.042Z,9.11
2022-11-16T11:36:18.879Z,9.14
2022-11-16T11:39:03.269Z,9.20
2022-11-16T11:41:42.646Z,9.22
2022-11-16T11:44:15.089Z,9.24
2022-11-16T11:47:35.087Z,9.27
2022-11-16T11:49:42.844Z,9.30
2022-11-16T11:52:29.817Z,9.40
2022-11-16T11:54:56.531Z,9.53
2022-11-16T11:57:24.831Z,9.82
2022-11-16T11:59:54.377Z,10.04
2022-11-16T12:02:38.954Z,10.22
2022-11-16T12:05:29.082Z,10.38
2022-11-16T12:08:08.728Z,10.44
2022-11-16T12:10:51.376Z,10.40
2022-11-16T12:13:26.800Z,10.43
2022-11-16T12:16:11.485Z,10.43
2022-11-16T12:19:12.725Z,10.31
2022-11-16T12:21:57.809Z,10.32
2022-11-16T12:24:40.136Z,10.21
2022-11-16T12:27:37.394Z,10.08
2022-11-16T12:30:11.612Z,9.95
2022-11-16T12:32:52.354Z,9.88
2022-11-16T12:35:26.860Z,9.81
2022-11-16T12:38:19.515Z,9.84
2022-11-16T12:41:04.970Z,9.71
2022-11-16T12:43:59.674Z,9.69
2022-11-16T12:46:53.229Z,9.68
2022-11-16T12:49:45.894Z,9.70
2022-11-16T12:52:35.183Z,9.80
2022-11-16T12:55:28.011Z,9.90
2022-11-16T12:58:06.878Z,10.11
2022-11-16T13:01:05.041Z,10.21
2022-11-16T13:03:52.437Z,10.26
2022-11-16T13:06:39.945Z,10.16
2022-11-16T13:09:21.693Z,10.11
2022-11-16T13:11:54.481Z,10.03
2022-11-16T13:14:38.572Z,10.01
2022-11-16T13:17:06.625Z,10.02
2022-11-16T13:19:40.271Z,9.89
2022-11-16T13:22:23.622Z,9.85
2022-11-16T13:24:59.966Z,9.82
2022-11-16T13:27:41.430Z,9.74
2022-11-16T13:30:19.812Z,9.84
2022-11-16T13:33:18.938Z,9.92
2022-11-16T13:35:45.474Z,10.03
2022-11-16T13:38:13.359Z,10.06
2022-11-16T13:40:40.885Z,10.14
2022-11-16T13:43:10.317Z,10.13
2022-11-16T13:45:52.797Z,10.14
2022-11-16T13:48:32.464Z,10.06
2022-11-16T13:51:02.780Z,10.06
2022-11-16T13:54:42.702Z,10.09
2022-11-16T13:56:28.950Z,10.04
2022-11-16T13:58:56.982Z,10.06
2022-11-16T14:01:23.858Z,10.09
2022-11-16T14:03:52.210Z,10.05
2022-11-16T14:06:24.676Z,10.07
2022-11-16T14:08:55.397Z,10.11
2022-11-16T14:11:29.273Z,10.06
2022-11-16T14:13:56.003Z,10.10
2022-11-16T14:16:22.700Z,10.01
2022-11-16T14:18:53.847Z,10.04
2022-11-16T14:21:20.345Z,10.01
2022-11-16T14:23:58.601Z,9.99
2022-11-16T14:26:33.540Z,9.94
2022-11-16T14:29:41.643Z,9.84
2022-11-16T14:32:43.847Z,9.83
2022-11-16T14:35:26.073Z,9.82
2022-11-16T14:38:02.280Z,9.83
2022-11-16T14:40:30.651Z,9.80
2022-11-16T14:43:16.662Z,9.69
2022-11-16T14:45:48.922Z,9.72
2022-11-16T14:48:18.417Z,9.60
2022-11-16T14:51:07.009Z,9.55
2022-11-16T14:53:37.779Z,9.51
2022-11-16T14:56:08.916Z,9.52
2022-11-16T14:58:36.137Z,9.43
2022-11-16T15:01:06.047Z,9.37
2022-11-16T15:04:03.543Z,9.45
2022-11-16T15:06:42.793Z,9.37
2022-11-16T15:09:17.034Z,9.26
2022-11-16T15:12:07.452Z,9.11
2022-11-16T15:14:40.345Z,8.95
2022-11-16T15:17:07.304Z,8.97
2022-11-16T15:19:33.785Z,8.94
2022-11-16T15:22:02.629Z,8.92
2022-11-16T15:24:34.594Z,8.87
2022-11-16T15:27:12.055Z,8.69
2022-11-16T15:29:38.774Z,8.76
2022-11-16T15:32:07.041Z,8.78
2022-11-16T15:34:33.480Z,8.73
2022-11-16T15:36:59.904Z,8.64
2022-11-16T15:39:30.290Z,8.59
2022-11-16T15:42:03.229Z,8.56
2022-11-16T15:44:31.084Z,8.44
2022-11-16T15:46:58.162Z,8.31
2022-11-16T15:49:30.073Z,8.33
2022-11-16T15:51:58.487Z,8.36
2022-11-16T15:54:31.002Z,8.34
2022-11-16T15:57:08.048Z,8.36
2022-11-16T15:59:36.965Z,8.35
2022-11-16T16:02:04.192Z,8.30
2022-11-16T16:04:31.122Z,8.27
2022-11-16T16:07:00.292Z,8.33
2022-11-16T16:09:29.191Z,8.33
2022-11-16T16:12:17.481Z,8.27
2022-11-16T16:14:44.684Z,8.21
2022-11-16T16:17:21.321Z,8.21
2022-11-16T16:19:55.754Z,8.33
2022-11-16T16:22:36.666Z,8.33
2022-11-16T16:25:07.064Z,8.29
2022-11-16T16:27:39.471Z,8.28
2022-11-16T16:30:07.237Z,8.21
2022-11-16T16:32:36.745Z,8.26
2022-11-16T16:35:06.743Z,8.23
2022-11-16T16:37:36.532Z,8.19
2022-11-16T16:40:03.825Z,8.14
2022-11-16T16:42:30.295Z,8.07
2022-11-16T16:44:59.638Z,8.03
2022-11-16T16:47:26.164Z,8.01
2022-11-16T16:49:53.568Z,8.00
2022-11-16T16:52:25.654Z,8.08
2022-11-16T16:54:57.898Z,8.07
2022-11-16T16:57:24.387Z,8.03
2022-11-16T16:59:50.899Z,8.00
2022-11-16T17:02:18.737Z,8.01
2022-11-16T17:04:46.690Z,7.90
2022-11-16T17:07:13.278Z,7.81
2022-11-16T17:09:39.862Z,7.83
2022-11-16T17:12:06.411Z,7.85
2022-11-16T17:14:33.130Z,7.84
2022-11-16T17:17:02.338Z,7.82
2022-11-16T17:19:29.681Z,7.76
2022-11-16T17:21:56.209Z,7.76
2022-11-16T17:24:22.822Z,7.69
2022-11-16T17:26:49.297Z,7.70
2022-11-16T17:29:16.134Z,7.60
2022-11-16T17:31:44.093Z,7.58
2022-11-16T17:34:13.832Z,7.52
2022-11-16T17:36:40.968Z,7.43
2022-11-16T17:39:07.522Z,7.49
2022-11-16T17:41:34.246Z,7.38
2022-11-16T17:44:00.803Z,7.38
2022-11-16T17:46:27.531Z,7.30
2022-11-16T17:48:54.264Z,7.32
2022-11-16T17:51:23.197Z,7.33
2022-11-16T17:53:50.123Z,7.34
2022-11-16T17:56:26.150Z,7.33
2022-11-16T17:58:57.220Z,7.33
2022-11-16T18:01:24.634Z,7.28
2022-11-16T18:03:51.351Z,7.24
2022-11-16T18:06:22.669Z,7.19
2022-11-16T18:08:49.464Z,7.16
2022-11-16T18:11:18.297Z,7.12
2022-11-16T18:13:45.815Z,7.13
2022-11-16T18:16:21.010Z,7.14
2022-11-16T18:18:48.614Z,7.18
2022-11-16T18:21:20.650Z,7.17
2022-11-16T18:23:47.930Z,7.10
2022-11-16T18:26:16.896Z,7.13
2022-11-16T18:28:50.907Z,7.09
2022-11-16T18:31:19.991Z,7.08
2022-11-16T18:33:48.947Z,7.06
2022-11-16T18:36:16.796Z,7.11
2022-11-16T18:38:43.376Z,7.13
2022-11-16T18:41:12.733Z,7.14
2022-11-16T18:43:49.329Z,7.16
2022-11-16T18:46:19.721Z,7.17
2022-11-16T18:48:46.804Z,7.18
2022-11-16T18:51:15.021Z,7.15
2022-11-16T18:53:41.886Z,7.13
2022-11-16T18:56:09.142Z,7.10
2022-11-16T18:58:52.921Z,7.07
2022-11-16T19:01:25.606Z,7.07
2022-11-16T19:03:54.293Z,7.02
2022-11-16T19:06:22.065Z,7.08
2022-11-16T19:08:55.844Z,7.05
2022-11-16T19:11:23.768Z,7.14
2022-11-16T19:14:00.656Z,7.16
2022-11-16T19:16:27.228Z,7.23
2022-11-16T19:18:53.977Z,7.25
2022-11-16T19:21:24.445Z,7.21
2022-11-16T19:23:57.950Z,7.22
2022-11-16T19:26:26.900Z,7.22
2022-11-16T19:28:57.190Z,7.17
2022-11-16T19:31:26.864Z,7.26
2022-11-16T19:33:59.584Z,7.26
2022-11-16T19:36:27.996Z,7.19
2022-11-16T19:38:55.032Z,7.16
2022-11-16T19:41:22.877Z,7.19
2022-11-16T19:43:52.798Z,7.22
2022-11-16T19:46:24.599Z,7.16
2022-11-16T19:48:54.150Z,7.15
2022-11-16T19:51:26.770Z,7.09
2022-11-16T19:53:54.101Z,7.06
2022-11-16T19:56:22.905Z,6.92
2022-11-16T19:58:49.848Z,7.00
2022-11-16T20:01:18.581Z,7.00
2022-11-16T20:03:46.507Z,6.96
2022-11-16T20:06:19.080Z,6.97
2022-11-16T20:08:53.180Z,6.89
2022-11-16T20:11:25.707Z,6.85
2022-11-16T20:13:54.726Z,6.84
2022-11-16T20:16:26.727Z,6.83
2022-11-16T20:18:54.008Z,6.82
2022-11-16T20:21:30.670Z,6.84
2022-11-16T20:24:03.133Z,6.83
2022-11-16T20:26:34.454Z,6.81
2022-11-16T20:29:01.309Z,6.67
2022-11-16T20:31:32.685Z,6.66
2022-11-16T20:34:04.945Z,6.58
2022-11-16T20:36:33.813Z,6.50
2022-11-16T20:39:01.415Z,6.41
2022-11-16T20:41:30.580Z,6.33
2022-11-16T20:43:59.157Z,6.46
2022-11-16T20:46:29.008Z,6.39
2022-11-16T20:48:57.744Z,6.33
2022-11-16T20:51:24.435Z,6.41
2022-11-16T20:53:52.189Z,6.45
2022-11-16T20:56:20.362Z,6.38
2022-11-16T20:58:48.504Z,6.52
2022-11-16T21:01:21.110Z,6.53
2022-11-16T21:03:48.076Z,6.51
2022-11-16T21:06:15.291Z,6.54
2022-11-16T21:08:42.164Z,6.61
2022-11-16T21:11:17.479Z,6.69
2022-11-16T21:14:06.567Z,6.77
2022-11-16T21:16:34.282Z,6.75
2022-11-16T21:19:01.100Z,6.79
2022-11-16T21:21:27.934Z,6.80
2022-11-16T21:23:55.030Z,6.70
2022-11-16T21:26:28.542Z,6.72
2022-11-16T21:28:56.013Z,6.77
2022-11-16T21:31:25.799Z,6.77
2022-11-16T21:33:53.475Z,6.78
2022-11-16T21:36:22.436Z,6.78
2022-11-16T21:38:49.726Z,6.79
2022-11-16T21:41:18.319Z,6.76
2022-11-16T21:43:45.179Z,6.81
2022-11-16T21:46:17.780Z,6.83
2022-11-16T21:48:44.938Z,6.79
2022-11-16T21:51:14.070Z,6.79
2022-11-16T21:53:40.794Z,6.82
2022-11-16T21:56:14.193Z,6.80
2022-11-16T21:58:40.961Z,6.83
2022-11-16T22:01:08.840Z,6.86
2022-11-16T22:03:35.921Z,6.86
2022-11-16T22:06:23.242Z,6.83
2022-11-16T22:08:50.398Z,6.72
2022-11-16T22:11:17.571Z,6.64
2022-11-16T22:13:44.531Z,6.62
2022-11-16T22:16:18.986Z,6.58
2022-11-16T22:18:46.127Z,6.62
2022-11-16T22:21:13.115Z,6.58
2022-11-16T22:23:41.915Z,6.62
2022-11-16T22:26:16.786Z,6.56
2022-11-16T22:28:43.916Z,6.58
2022-11-16T22:31:17.184Z,6.42
2022-11-16T22:33:44.445Z,6.37
2022-11-16T22:36:23.341Z,6.30
2022-11-16T22:38:52.677Z,6.21
2022-11-16T22:41:26.466Z,6.23
2022-11-16T22:43:53.538Z,6.15
2022-11-16T22:46:26.129Z,6.16
2022-11-16T22:49:01.119Z,6.17
2022-11-16T22:51:30.940Z,6.18
2022-11-16T22:54:03.228Z,6.16
2022-11-16T22:56:35.301Z,6.19
2022-11-16T22:59:05.910Z,6.09
2022-11-16T23:01:37.253Z,6.06
2022-11-16T23:04:11.359Z,6.08
2022-11-16T23:06:48.414Z,6.13
2022-11-16T23:09:16.016Z,6.14
2022-11-16T23:12:10.162Z,6.06
2022-11-16T23:14:55.244Z,6.06
2022-11-16T23:17:21.753Z,5.98
2022-11-16T23:20:06.805Z,6.00
2022-11-16T23:22:51.780Z,6.03
2022-11-16T23:25:47.541Z,6.07
2022-11-16T23:28:16.218Z,5.97
2022-11-16T23:30:42.704Z,5.94
2022-11-16T23:33:10.511Z,5.88
2022-11-16T23:35:37.049Z,5.91
2022-11-16T23:38:06.141Z,5.79
2022-11-16T23:40:38.141Z,5.77
2022-11-16T23:43:24.742Z,5.72
2022-11-16T23:45:51.386Z,5.63
2022-11-16T23:48:18.826Z,5.60
2022-11-16T23:50:46.469Z,5.54
2022-11-16T23:53:13.202Z,5.63
2022-11-16T23:55:40.326Z,5.72
2022-11-16T23:58:11.046Z,5.75
